Keene, Ohio
Current Conditions -  °F | °C
As of 12:53 PM on Saturday 22 Nov 2014 (Local Time) from KPHD Reporting Station
Overcast Overcast  
Wind Chill: 33°   Ceiling: 4800
Heat Index: 38°   Visibility: 10mi
Dew Point: 31°   Wind: 7mph
Humidity: 76%   Direction: 170°S
Pressure: 30.21"   Gusts: NA
Location:  40.35°N, 81.87°W
Report Text: KPHD 221753Z AUTO 17006KT 10SM BKN048 OVC060 03/M01 A3021 RMK AO2 RAB30E39 SLP242 P0000 60009 I6008 T00331006 10033 21056 58030
Loading
Personal Weather Stations






























Interactive Weather Map New forecast layout! Learn more

10-Day Weather Forecast

Advertisements
Track Severe Weather on mobile